Terminal Aerodrome Forecast
Issued by NWS

Home | Current Version | Previous Version | Text Only | Print | Product List | Glossary On
Versions: 1 2 3 4 5 6 7 8 9 10 11 12 13 14 15 16 17 18 19 20 21 22 23
125
FTUS43 KLSX 292027 AAA
TAFUIN
TAF AMD
KUIN 292027Z 2920/3018 04017G27KT 4SM -SHRA BR VCTS OVC008CB
      TEMPO 2920/2922 1SM TSRA BR BKN006CB
     FM300300 05014G21KT 4SM SHRA OVC008
     FM301200 09010KT 3SM SHRA OVC008
     FM301400 13011G18KT 3SM SHRA VCTS OVC008CB=

USA.gov is the U.S. government's official web portal to all federal, state and local government web resources and services.